Time;durP1;ratioP1;P1;durP2;ratioP2;P2;SDS_P1;SDS_P2;PMS_P1;PMS_P2;Temp;Humidity;BMP_temperature;BMP_pressure;BME280_temperature;BME280_humidity;BME280_pressure;Samples;Min_cycle;Max_cycle;Signal;HPM_P1;HPM_P2
2022/11/17 00:01:09;;;;;;;;;;;;;;;21.03;56.26;100048.09;5084810;28;2784;-65
2022/11/17 00:03:35;;;;;;;;;;;;;;;21.02;56.57;100052.38;5079661;28;2799;-64
2022/11/17 00:06:03;;;;;;;;;;;;;;;21.03;56.35;100056.75;5073494;28;2898;-64
2022/11/17 00:08:29;;;;;;;;;;;;;;;21.01;56.21;100060.28;5082670;28;2783;-65
2022/11/17 00:10:59;;;;;;;;;;;;;;;21.00;56.23;100049.44;5084020;28;2783;-64
2022/11/17 00:16:14;;;;;;;;;;;;;;;20.99;56.17;100051.59;5083200;28;2785;-64
2022/11/17 00:21:27;;;;;;;;;;;;;;;21.01;56.13;100045.16;5087149;28;2712;-64
2022/11/17 00:23:54;;;;;;;;;;;;;;;21.02;56.22;100046.63;5080961;28;2816;-64
2022/11/17 00:26:24;;;;;;;;;;;;;;;21.02;56.23;100043.75;5086993;28;1732;-64
2022/11/17 00:28:53;;;;;;;;;;;;;;;21.03;56.24;100042.34;5081834;28;3196;-65
2022/11/17 00:34:05;;;;;;;;;;;;;;;21.06;55.91;100043.88;5085783;28;2863;-65
2022/11/17 00:36:32;;;;;;;;;;;;;;;21.06;55.94;100035.97;5081267;28;2791;-64
2022/11/17 00:38:58;;;;;;;;;;;;;;;21.07;55.70;100030.94;5088186;28;2733;-65
2022/11/17 00:41:25;;;;;;;;;;;;;;;21.08;55.80;100041.06;5094340;28;2803;-65
2022/11/17 00:43:51;;;;;;;;;;;;;;;21.07;55.92;100033.81;5089164;28;3128;-64
2022/11/17 00:46:17;;;;;;;;;;;;;;;21.08;55.77;100038.19;5089317;28;3002;-64
2022/11/17 00:48:44;;;;;;;;;;;;;;;21.07;55.79;100040.34;5087276;28;1688;-64
2022/11/17 00:51:10;;;;;;;;;;;;;;;21.05;55.86;100036.63;5078754;28;2775;-64
2022/11/17 00:53:36;;;;;;;;;;;;;;;21.06;55.73;100046.75;5076493;28;2844;-64
2022/11/17 00:56:03;;;;;;;;;;;;;;;21.05;55.96;100039.50;5087994;28;2656;-64
2022/11/17 00:58:30;;;;;;;;;;;;;;;21.04;56.02;100046.69;5087575;28;2785;-64
2022/11/17 01:00:56;;;;;;;;;;;;;;;21.04;55.77;100038.06;5085907;28;2785;-64
2022/11/17 01:03:22;;;;;;;;;;;;;;;21.04;55.94;100040.94;5089612;28;2779;-65
2022/11/17 01:05:49;;;;;;;;;;;;;;;21.03;55.75;100040.19;5084590;28;3162;-64
2022/11/17 01:08:15;;;;;;;;;;;;;;;21.03;56.13;100036.59;5079683;28;2934;-64
2022/11/17 01:10:41;;;;;;;;;;;;;;;21.02;56.03;100038.00;5078741;28;2904;-64
2022/11/17 01:13:08;;;;;;;;;;;;;;;21.01;56.06;100031.50;5081128;28;2811;-64
2022/11/17 01:15:34;;;;;;;;;;;;;;;21.00;55.90;100029.28;5085244;28;3128;-64
2022/11/17 01:18:00;;;;;;;;;;;;;;;20.98;56.08;100020.59;5092847;28;1950;-64
2022/11/17 01:20:27;;;;;;;;;;;;;;;20.98;55.95;100029.97;5086037;28;2781;-64
2022/11/17 01:22:53;;;;;;;;;;;;;;;20.98;55.86;100032.09;5094143;28;2984;-64
2022/11/17 01:25:19;;;;;;;;;;;;;;;20.98;56.05;100021.34;5083100;28;2903;-65
2022/11/17 01:27:46;;;;;;;;;;;;;;;20.98;55.92;100026.34;5085240;28;3128;-64
2022/11/17 01:30:13;;;;;;;;;;;;;;;20.98;56.13;100020.59;5085990;28;2806;-64
2022/11/17 01:32:39;;;;;;;;;;;;;;;20.96;56.12;100027.03;5084470;28;3125;-64
2022/11/17 01:35:06;;;;;;;;;;;;;;;20.93;56.07;100020.47;5075205;28;2870;-64
2022/11/17 01:37:32;;;;;;;;;;;;;;;20.95;56.02;100010.44;5080354;28;2952;-65
2022/11/17 01:39:58;;;;;;;;;;;;;;;20.94;56.04;100003.94;5085752;28;2786;-64
2022/11/17 01:42:25;;;;;;;;;;;;;;;20.93;55.74;100006.06;5087540;28;2981;-65
2022/11/17 01:44:53;;;;;;;;;;;;;;;20.93;55.97;100008.94;5088303;28;2543;-65
2022/11/17 01:47:30;;;;;;;;;;;;;;;20.92;56.04;100001.72;5085860;28;2871;-64
2022/11/17 01:50:01;;;;;;;;;;;;;;;20.92;56.07;100003.88;5090972;28;1704;-64
2022/11/17 01:52:27;;;;;;;;;;;;;;;20.92;56.06;100004.63;5083866;28;2841;-64
2022/11/17 01:54:54;;;;;;;;;;;;;;;20.90;56.03;100001.66;5068720;28;2817;-65
2022/11/17 01:57:22;;;;;;;;;;;;;;;20.89;55.81;100008.84;5089315;28;2811;-64
2022/11/17 01:59:50;;;;;;;;;;;;;;;20.88;55.84;100013.13;5077130;28;3012;-65
2022/11/17 02:02:16;;;;;;;;;;;;;;;20.89;55.79;100017.47;5084052;28;2861;-65
2022/11/17 02:04:44;;;;;;;;;;;;;;;20.88;55.91;100018.16;5085482;28;2799;-64
2022/11/17 02:07:15;;;;;;;;;;;;;;;20.87;55.89;100020.28;5073791;28;2756;-64
2022/11/17 02:09:42;;;;;;;;;;;;;;;20.87;55.95;100017.41;5070019;28;2834;-64
2022/11/17 02:12:08;;;;;;;;;;;;;;;20.87;55.83;100010.94;5089044;28;2727;-65
2022/11/17 02:14:35;;;;;;;;;;;;;;;20.86;56.02;100010.16;5066273;28;2914;-65
2022/11/17 02:17:01;;;;;;;;;;;;;;;20.85;55.94;100008.72;5076599;28;2470;-65
2022/11/17 02:19:42;;;;;;;;;;;;;;;20.84;55.84;100003.63;5090446;28;2856;-64
2022/11/17 02:22:20;;;;;;;;;;;;;;;20.85;55.74;100002.97;5071973;28;2834;-64
2022/11/17 02:24:59;;;;;;;;;;;;;;;20.85;55.91;100000.09;5088466;28;2915;-64
2022/11/17 02:27:45;;;;;;;;;;;;;;;20.85;55.66;100002.97;5097184;28;1672;-64
2022/11/17 02:30:12;;;;;;;;;;;;;;;20.87;55.68;99985.03;5084437;28;2812;-65
2022/11/17 02:32:48;;;;;;;;;;;;;;;20.87;55.78;99994.41;5087092;28;2753;-65
2022/11/17 02:35:38;;;;;;;;;;;;;;;20.87;55.74;99987.91;5074829;28;2824;-65
2022/11/17 02:38:24;;;;;;;;;;;;;;;20.88;55.89;99978.59;5080706;28;2815;-65
2022/11/17 02:41:04;;;;;;;;;;;;;;;20.90;55.52;99987.28;5069339;28;2765;-65
2022/11/17 02:46:17;;;;;;;;;;;;;;;20.92;55.25;99978.72;5093675;28;2843;-64
2022/11/17 02:48:45;;;;;;;;;;;;;;;20.91;55.56;99977.25;5083548;28;2719;-65
2022/11/17 02:51:12;;;;;;;;;;;;;;;20.92;55.44;99978.72;5071390;28;3030;-65
2022/11/17 02:53:39;;;;;;;;;;;;;;;20.91;55.38;99968.63;5082775;28;3188;-65
2022/11/17 02:56:05;;;;;;;;;;;;;;;20.92;55.49;99955.69;5064898;28;2886;-65
2022/11/17 02:58:32;;;;;;;;;;;;;;;20.92;55.19;99963.59;5088300;28;2756;-65
2022/11/17 03:01:13;;;;;;;;;;;;;;;20.91;55.55;99954.25;5089008;28;3225;-65
2022/11/17 03:03:43;;;;;;;;;;;;;;;20.89;55.57;99951.28;5096410;28;3141;-65
2022/11/17 03:06:14;;;;;;;;;;;;;;;20.90;55.60;99940.50;5083288;28;1885;-65
2022/11/17 03:08:48;;;;;;;;;;;;;;;20.90;55.42;99941.25;5077614;28;2791;-65
2022/11/17 03:11:15;;;;;;;;;;;;;;;20.88;55.31;99944.06;5096208;28;2676;-65
2022/11/17 03:13:43;;;;;;;;;;;;;;;20.88;55.41;99952.69;5079644;28;2783;-65
2022/11/17 03:16:16;;;;;;;;;;;;;;;20.87;55.65;99954.09;5080883;28;2824;-65
2022/11/17 03:18:53;;;;;;;;;;;;;;;20.86;55.58;99958.38;5078596;28;2875;-65
2022/11/17 03:21:27;;;;;;;;;;;;;;;20.86;55.59;99951.91;5079574;28;2858;-65
2022/11/17 03:23:54;;;;;;;;;;;;;;;20.85;55.53;99951.16;5096260;28;2588;-65
2022/11/17 03:26:24;;;;;;;;;;;;;;;20.86;55.45;99952.63;5078998;28;2466;-65
2022/11/17 03:28:51;;;;;;;;;;;;;;;20.87;55.56;99956.25;5095837;28;2695;-64
2022/11/17 03:31:17;;;;;;;;;;;;;;;20.85;55.63;99956.19;5079486;28;2847;-64
2022/11/17 03:33:44;;;;;;;;;;;;;;;20.84;55.40;99954.72;5097884;28;2644;-65
2022/11/17 03:36:11;;;;;;;;;;;;;;;20.83;55.61;99950.38;5070221;28;2990;-64
2022/11/17 03:38:39;;;;;;;;;;;;;;;20.82;55.70;99952.53;5072583;28;2844;-65
2022/11/17 03:41:06;;;;;;;;;;;;;;;20.80;55.48;99955.34;5063849;28;2800;-65
2022/11/17 03:43:32;;;;;;;;;;;;;;;20.82;55.65;99957.53;5063397;28;2757;-65
2022/11/17 03:46:04;;;;;;;;;;;;;;;20.81;55.60;99951.03;5065886;28;2829;-65
2022/11/17 03:48:37;;;;;;;;;;;;;;;20.83;55.52;99950.38;5067739;28;2744;-65
2022/11/17 03:51:08;;;;;;;;;;;;;;;20.84;55.42;99948.97;5079600;28;2844;-65
2022/11/17 03:53:34;;;;;;;;;;;;;;;20.85;55.25;99950.44;5065017;28;2819;-65
2022/11/17 03:56:20;;;;;;;;;;;;;;;20.87;55.46;99941.88;5083417;28;2761;-64
2022/11/17 03:58:56;;;;;;;;;;;;;;;20.88;55.31;99944.06;5079077;28;2706;-65
2022/11/17 04:01:23;;;;;;;;;;;;;;;20.89;55.10;99945.53;5061523;28;2886;-65
2022/11/17 04:03:49;;;;;;;;;;;;;;;20.91;55.32;99939.09;5058051;28;2824;-64
2022/11/17 04:06:15;;;;;;;;;;;;;;;20.91;55.30;99941.97;5058608;28;3160;-65
2022/11/17 04:08:42;;;;;;;;;;;;;;;20.91;55.10;99945.59;5078448;28;3310;-64
2022/11/17 04:16:38;;;;;;;;;;;;;;;20.91;55.23;99942.72;5065180;28;2910;-65
2022/11/17 04:19:04;;;;;;;;;;;;;;;20.91;55.24;99936.97;5072780;28;2843;-64
2022/11/17 04:21:30;;;;;;;;;;;;;;;20.91;55.16;99931.22;5060397;28;2824;-65
2022/11/17 04:23:57;;;;;;;;;;;;;;;20.91;55.05;99925.47;5049915;28;2888;-65
2022/11/17 04:29:08;;;;;;;;;;;;;;;20.94;55.07;99923.38;5049665;28;2990;-65
2022/11/17 04:31:34;;;;;;;;;;;;;;;20.93;55.25;99919.75;5047190;28;3118;-65
2022/11/17 04:34:02;;;;;;;;;;;;;;;20.93;55.01;99922.63;5050550;28;2913;-65
2022/11/17 04:36:29;;;;;;;;;;;;;;;20.95;54.91;99912.59;5049262;28;2880;-65
2022/11/17 04:38:56;;;;;;;;;;;;;;;20.96;55.05;99914.81;5049192;28;4274;-65
2022/11/17 04:44:08;;;;;;;;;;;;;;;20.97;54.94;99909.78;5051547;28;2935;-65
2022/11/17 04:46:34;;;;;;;;;;;;;;;20.97;54.83;99906.91;5052064;28;2928;-65
2022/11/17 04:49:00;;;;;;;;;;;;;;;20.97;55.05;99906.91;5051484;28;2895;-65
2022/11/17 04:51:27;;;;;;;;;;;;;;;20.98;54.90;99916.97;5051960;28;2668;-66
2022/11/17 04:53:53;;;;;;;;;;;;;;;20.98;54.81;99914.09;5048428;28;3096;-65
2022/11/17 04:56:20;;;;;;;;;;;;;;;20.97;54.95;99898.25;5055945;28;2840;-65
2022/11/17 04:58:46;;;;;;;;;;;;;;;20.97;55.03;99898.25;5054955;28;3042;-65
2022/11/17 05:01:12;;;;;;;;;;;;;;;20.98;54.98;99899.72;5055341;28;2801;-65
2022/11/17 05:03:39;;;;;;;;;;;;;;;20.98;54.79;99911.22;5053933;28;2886;-65
2022/11/17 05:06:05;;;;;;;;;;;;;;;20.97;54.84;99892.50;5055840;28;3197;-65
2022/11/17 05:08:33;;;;;;;;;;;;;;;20.97;54.84;99898.25;5053589;28;2992;-65
2022/11/17 05:13:44;;;;;;;;;;;;;;;20.98;54.75;99899.72;5058303;28;2880;-65
2022/11/17 05:18:56;;;;;;;;;;;;;;;20.97;54.77;99896.09;5052260;28;2786;-65
2022/11/17 05:21:22;;;;;;;;;;;;;;;20.98;54.64;99894.72;5070388;28;2866;-65
2022/11/17 05:23:54;;;;;;;;;;;;;;;20.98;54.90;99899.72;5091543;28;2741;-65
2022/11/17 05:26:21;;;;;;;;;;;;;;;20.98;54.95;99888.22;5088276;28;2948;-65
2022/11/17 05:28:48;;;;;;;;;;;;;;;20.97;54.88;99878.13;5077020;28;3029;-65
2022/11/17 05:31:14;;;;;;;;;;;;;;;20.99;54.73;99883.94;5085423;28;3187;-65
2022/11/17 05:33:40;;;;;;;;;;;;;;;20.99;55.03;99884.66;5092351;28;2771;-64
2022/11/17 05:36:07;;;;;;;;;;;;;;;21.00;54.88;99885.38;5093623;28;2841;-65
2022/11/17 05:38:34;;;;;;;;;;;;;;;21.00;54.66;99880.34;5094386;28;2695;-65
2022/11/17 05:41:00;;;;;;;;;;;;;;;21.00;54.79;99877.47;5093450;28;3209;-65
2022/11/17 05:43:26;;;;;;;;;;;;;;;21.00;54.84;99877.47;5089801;28;2932;-65
2022/11/17 05:45:53;;;;;;;;;;;;;;;20.99;54.62;99873.16;5088774;28;2827;-64
2022/11/17 05:48:19;;;;;;;;;;;;;;;21.01;54.93;99875.34;5094840;28;2761;-64
2022/11/17 05:50:45;;;;;;;;;;;;;;;21.01;54.62;99875.34;5084359;28;2940;-64
2022/11/17 05:53:12;;;;;;;;;;;;;;;21.01;54.56;99875.34;5079617;28;2840;-63
2022/11/17 05:55:38;;;;;;;;;;;;;;;21.00;54.67;99874.59;5082417;28;3018;-64
2022/11/17 05:58:11;;;;;;;;;;;;;;;21.00;54.85;99868.13;5076855;28;2661;-64
2022/11/17 06:00:38;;;;;;;;;;;;;;;21.10;54.70;99866.25;5068173;28;2906;-65
2022/11/17 06:03:04;;;;;;;;;;;;;;;21.08;54.48;99863.31;5075398;28;2982;-65
2022/11/17 06:05:31;;;;;;;;;;;;;;;21.07;55.06;99867.63;5072814;28;3189;-61
2022/11/17 06:07:57;;;;;;;;;;;;;;;21.14;55.17;99865.63;5075233;28;2884;-58
2022/11/17 06:10:24;;;;;;;;;;;;;;;21.17;54.91;99854.94;5083807;28;2927;-59
2022/11/17 06:12:53;;;;;;;;;;;;;;;21.21;56.28;99847.13;5073303;28;3464;-65
2022/11/17 06:15:20;;;;;;;;;;;;;;;21.34;57.69;99848.16;5078989;28;3448;-64
2022/11/17 06:17:47;;;;;;;;;;;;;;;21.27;56.27;99852.31;5072007;28;3070;-64
2022/11/17 06:20:18;;;;;;;;;;;;;;;21.27;56.12;99843.66;5060775;28;2979;-65
2022/11/17 06:22:45;;;;;;;;;;;;;;;21.22;56.32;99848.59;5076721;28;3029;-64
2022/11/17 06:25:13;;;;;;;;;;;;;;;21.19;56.70;99846.31;5068965;28;2918;-64
2022/11/17 06:27:40;;;;;;;;;;;;;;;21.18;56.40;99845.59;5078867;28;4445;-64
2022/11/17 06:30:06;;;;;;;;;;;;;;;21.18;56.58;99839.09;5083192;28;4177;-64
2022/11/17 06:32:33;;;;;;;;;;;;;;;21.18;56.78;99836.94;5080122;28;2901;-64
2022/11/17 06:34:59;;;;;;;;;;;;;;;21.22;56.52;99848.59;5086598;28;2095;-64
2022/11/17 06:37:26;;;;;;;;;;;;;;;21.24;56.67;99834.25;5069008;28;2877;-64
2022/11/17 06:39:52;;;;;;;;;;;;;;;21.28;56.50;99837.25;5082751;28;2976;-64
2022/11/17 06:42:18;;;;;;;;;;;;;;;21.29;56.30;99821.41;5076018;28;3035;-65
2022/11/17 06:45:05;;;;;;;;;;;;;;;21.32;56.45;99822.94;5083930;28;2869;-64
2022/11/17 06:47:31;;;;;;;;;;;;;;;21.37;56.07;99817.28;5084661;28;2918;-64
2022/11/17 06:49:57;;;;;;;;;;;;;;;21.29;56.21;99824.28;5069935;28;4408;-68
2022/11/17 06:52:24;;;;;;;;;;;;;;;19.80;47.08;99831.47;5079493;28;3302;-64
2022/11/17 06:54:50;;;;;;;;;;;;;;;20.25;49.56;99824.25;5078969;28;2960;-63
2022/11/17 06:57:17;;;;;;;;;;;;;;;20.84;51.72;99831.00;5070499;28;2990;-62
2022/11/17 06:59:43;;;;;;;;;;;;;;;21.25;53.19;99826.34;5076640;28;2792;-54
2022/11/17 07:02:10;;;;;;;;;;;;;;;21.59;53.28;99826.50;5079993;28;2510;-53
2022/11/17 07:04:36;;;;;;;;;;;;;;;21.61;53.11;99815.03;5083548;28;4654;-59
2022/11/17 07:07:03;;;;;;;;;;;;;;;21.74;52.99;99831.22;5080981;28;4181;-58
2022/11/17 07:09:29;;;;;;;;;;;;;;;21.77;52.80;99820.47;5076013;28;5259;-54
2022/11/17 07:11:56;;;;;;;;;;;;;;;21.85;53.17;99817.03;5069210;28;3372;-56
2022/11/17 07:14:22;;;;;;;;;;;;;;;21.94;53.55;99830.22;5073901;28;3108;-61
2022/11/17 07:16:48;;;;;;;;;;;;;;;21.99;52.98;99825.28;5050625;28;3089;-56
2022/11/17 07:19:15;;;;;;;;;;;;;;;21.80;53.08;99815.47;5074772;28;5524;-65
2022/11/17 07:21:41;;;;;;;;;;;;;;;21.68;53.46;99833.94;5075021;28;3584;-68
2022/11/17 07:24:07;;;;;;;;;;;;;;;21.69;53.52;99835.41;5078460;28;3176;-66
2022/11/17 07:26:34;;;;;;;;;;;;;;;21.64;53.02;99830.94;5077151;28;3097;-65
2022/11/17 07:29:00;;;;;;;;;;;;;;;21.60;52.75;99821.47;5082312;28;2952;-62
2022/11/17 07:31:26;;;;;;;;;;;;;;;21.88;52.27;99838.75;5086000;28;3650;-63
2022/11/17 07:34:17;;;;;;;;;;;;;;;21.90;51.73;99835.91;5086112;28;3615;-62
2022/11/17 07:36:44;;;;;;;;;;;;;;;21.92;51.99;99815.75;5084374;28;2785;-61
2022/11/17 07:39:11;;;;;;;;;;;;;;;21.95;51.49;99818.03;5085625;28;2885;-60
2022/11/17 07:41:42;;;;;;;;;;;;;;;22.00;51.65;99824.59;5080467;28;4460;-63
2022/11/17 07:44:08;;;;;;;;;;;;;;;22.05;51.01;99831.19;5073185;28;3514;-60
2022/11/17 07:46:35;;;;;;;;;;;;;;;22.04;50.69;99827.59;5074887;28;3056;-62
2022/11/17 07:49:01;;;;;;;;;;;;;;;21.90;51.15;99825.13;5071862;28;3063;-57
2022/11/17 07:51:27;;;;;;;;;;;;;;;21.88;50.93;99821.44;5086589;28;2820;-57
2022/11/17 07:53:54;;;;;;;;;;;;;;;21.88;51.69;99827.22;5077523;28;4199;-61
2022/11/17 07:56:20;;;;;;;;;;;;;;;21.96;51.41;99824.50;5071943;28;4120;-61
2022/11/17 07:58:49;;;;;;;;;;;;;;;22.02;51.18;99821.78;5076862;28;3533;-62
2022/11/17 08:01:16;;;;;;;;;;;;;;;22.02;50.79;99812.41;5080280;28;3104;-61
2022/11/17 08:03:42;;;;;;;;;;;;;;;22.06;51.21;99807.47;5076829;28;2925;-61
2022/11/17 08:06:09;;;;;;;;;;;;;;;22.07;50.97;99808.91;5086126;28;2884;-59
2022/11/17 08:08:35;;;;;;;;;;;;;;;22.08;50.82;99798.88;5080916;28;3027;-58
2022/11/17 08:11:05;;;;;;;;;;;;;;;22.09;50.55;99797.44;5088001;28;2923;-54
2022/11/17 08:13:32;;;;;;;;;;;;;;;22.11;51.30;99791.72;5064919;28;3021;-59
2022/11/17 08:15:58;;;;;;;;;;;;;;;22.07;51.85;99780.09;5088862;28;3043;-61
2022/11/17 08:18:25;;;;;;;;;;;;;;;22.12;51.80;99786.66;5085865;28;2978;-60
2022/11/17 08:20:51;;;;;;;;;;;;;;;22.13;52.05;99788.16;5081109;28;3083;-62
2022/11/17 08:23:18;;;;;;;;;;;;;;;22.14;52.22;99784.56;5084187;28;2920;-61
2022/11/17 08:25:44;;;;;;;;;;;;;;;22.15;51.98;99788.16;5089593;28;3023;-60
2022/11/17 08:28:10;;;;;;;;;;;;;;;22.22;51.78;99784.06;5088378;28;2081;-56
2022/11/17 08:30:37;;;;;;;;;;;;;;;22.21;51.49;99788.34;5079552;28;3547;-63
2022/11/17 08:33:03;;;;;;;;;;;;;;;22.07;51.80;99788.75;5079076;28;3135;-64
2022/11/17 08:35:31;;;;;;;;;;;;;;;22.03;51.88;99794.41;5084537;28;2961;-59
2022/11/17 08:38:02;;;;;;;;;;;;;;;21.73;51.61;99789.41;5088406;28;2893;-53
2022/11/17 08:40:29;;;;;;;;;;;;;;;21.96;51.54;99793.53;5073864;28;3333;-60
2022/11/17 08:42:55;;;;;;;;;;;;;;;22.02;51.32;99795.84;5073442;28;3471;-56
2022/11/17 08:45:26;;;;;;;;;;;;;;;22.10;51.21;99792.41;5079976;28;2995;-56
2022/11/17 08:47:52;;;;;;;;;;;;;;;22.10;51.95;99801.03;5082092;28;3265;-61
2022/11/17 08:50:19;;;;;;;;;;;;;;;22.04;51.76;99795.16;5068136;28;2831;-62
2022/11/17 08:52:46;;;;;;;;;;;;;;;22.03;52.01;99803.06;5086987;28;3090;-62
2022/11/17 08:55:12;;;;;;;;;;;;;;;22.03;51.79;99797.28;5087982;28;2982;-58
2022/11/17 08:57:38;;;;;;;;;;;;;;;22.05;52.04;99787.97;5082343;28;2980;-63
2022/11/17 09:00:05;;;;;;;;;;;;;;;22.05;52.18;99794.44;5088614;28;4701;-60
2022/11/17 09:02:32;;;;;;;;;;;;;;;22.05;52.15;99800.22;5083437;28;2971;-61
2022/11/17 09:04:58;;;;;;;;;;;;;;;22.06;52.20;99801.69;5081085;28;2945;-61
2022/11/17 09:07:25;;;;;;;;;;;;;;;22.07;52.12;99808.91;5082539;28;2917;-61
2022/11/17 09:09:59;;;;;;;;;;;;;;;22.10;51.93;99815.47;5082286;28;4937;-62
2022/11/17 09:12:25;;;;;;;;;;;;;;;22.06;52.12;99810.34;5087843;28;2853;-61
2022/11/17 09:14:51;;;;;;;;;;;;;;;22.04;52.12;99803.81;5092588;28;3653;-62
2022/11/17 09:17:18;;;;;;;;;;;;;;;22.04;52.17;99807.41;5097202;28;1623;-60
2022/11/17 09:19:44;;;;;;;;;;;;;;;22.04;52.43;99810.28;5100414;28;2991;-60
2022/11/17 09:22:10;;;;;;;;;;;;;;;22.05;52.56;99808.88;5099091;28;3382;-59
2022/11/17 09:24:37;;;;;;;;;;;;;;;22.04;52.28;99810.28;5100769;28;3116;-57
2022/11/17 09:27:03;;;;;;;;;;;;;;;21.66;51.37;99810.13;5095841;28;3092;-67
2022/11/17 09:29:29;;;;;;;;;;;;;;;21.82;50.85;99801.13;5086294;28;4647;-67
2022/11/17 09:31:56;;;;;;;;;;;;;;;21.92;49.18;99805.00;5088712;28;4243;-66
2022/11/17 09:34:22;;;;;;;;;;;;;;;22.15;49.79;99817.75;5093227;28;2896;-66
2022/11/17 09:36:49;;;;;;;;;;;;;;;22.21;50.27;99804.88;5099995;28;2886;-65
2022/11/17 09:39:15;;;;;;;;;;;;;;;22.26;50.71;99812.22;5085245;28;3016;-67
2022/11/17 09:41:45;;;;;;;;;;;;;;;22.31;50.85;99813.78;5088652;28;1561;-67
2022/11/17 09:44:17;;;;;;;;;;;;;;;22.38;50.89;99800.97;5083507;28;2777;-65
2022/11/17 09:46:44;;;;;;;;;;;;;;;22.35;50.88;99808.09;5069643;28;4754;-65
2022/11/17 09:49:11;;;;;;;;;;;;;;;22.39;51.34;99813.97;5085410;28;4626;-65
2022/11/17 09:51:37;;;;;;;;;;;;;;;22.38;51.06;99810.34;5063050;28;3085;-65
2022/11/17 09:54:06;;;;;;;;;;;;;;;22.42;50.89;99812.56;5082105;28;2985;-65
2022/11/17 09:56:33;;;;;;;;;;;;;;;22.39;51.61;99796.66;5071904;28;4694;-65
2022/11/17 09:59:03;;;;;;;;;;;;;;;22.41;51.25;99802.47;5081234;28;3017;-65
2022/11/17 10:01:29;;;;;;;;;;;;;;;22.38;51.42;99800.97;5063676;28;3016;-65
2022/11/17 10:03:58;;;;;;;;;;;;;;;22.44;51.11;99798.19;5079927;28;3224;-65
2022/11/17 10:06:24;;;;;;;;;;;;;;;22.44;51.69;99798.19;5081275;28;2929;-65
2022/11/17 10:08:59;;;;;;;;;;;;;;;22.46;51.67;99792.47;5090517;28;1621;-65
2022/11/17 10:11:32;;;;;;;;;;;;;;;22.47;52.04;99784.53;5095685;28;1564;-65
2022/11/17 10:14:14;;;;;;;;;;;;;;;22.50;52.26;99789.69;5090718;28;3505;-66
2022/11/17 10:16:42;;;;;;;;;;;;;;;22.51;52.45;99779.59;5087871;28;2931;-66
2022/11/17 10:19:14;;;;;;;;;;;;;;;22.43;52.55;99785.22;5073476;28;4614;-66
2022/11/17 10:21:40;;;;;;;;;;;;;;;22.45;53.18;99770.84;5093572;28;4687;-66
2022/11/17 10:24:07;;;;;;;;;;;;;;;22.51;53.13;99770.94;5090112;28;2969;-66
2022/11/17 10:26:43;;;;;;;;;;;;;;;22.52;53.43;99772.41;5092780;28;2173;-66
2022/11/17 10:29:10;;;;;;;;;;;;;;;22.53;53.66;99759.44;5093811;28;1652;-66
2022/11/17 10:31:41;;;;;;;;;;;;;;;22.54;53.93;99760.94;5094611;28;2943;-67
2022/11/17 10:34:08;;;;;;;;;;;;;;;22.50;54.03;99766.59;5089174;28;2937;-66
2022/11/17 10:36:34;;;;;;;;;;;;;;;22.42;54.47;99752.00;5080846;28;4661;-68
2022/11/17 10:39:00;;;;;;;;;;;;;;;22.39;54.76;99753.41;5074878;28;2979;-68
2022/11/17 10:41:27;;;;;;;;;;;;;;;22.41;55.40;99759.22;5057819;28;5006;-67
2022/11/17 10:44:02;;;;;;;;;;;;;;;22.43;55.55;99750.59;5094394;28;2850;-67
2022/11/17 10:46:28;;;;;;;;;;;;;;;22.36;55.14;99757.66;5091120;28;2876;-67
2022/11/17 10:49:20;;;;;;;;;;;;;;;22.32;55.55;99763.34;5080743;28;1665;-67
2022/11/17 10:51:47;;;;;;;;;;;;;;;22.40;55.33;99757.72;5070698;28;3079;-68
2022/11/17 10:54:13;;;;;;;;;;;;;;;22.36;55.27;99757.66;5066010;28;3014;-67
2022/11/17 10:56:43;;;;;;;;;;;;;;;22.33;55.60;99756.16;5088889;28;2939;-67
2022/11/17 10:59:12;;;;;;;;;;;;;;;22.21;55.68;99759.50;5081455;28;2795;-67
2022/11/17 11:01:39;;;;;;;;;;;;;;;22.38;55.27;99758.44;5080081;28;3000;-65
2022/11/17 11:04:06;;;;;;;;;;;;;;;22.61;55.42;99746.59;5084801;28;2940;-67
2022/11/17 11:06:33;;;;;;;;;;;;;;;22.71;55.08;99743.91;5084931;28;1792;-67
2022/11/17 11:09:00;;;;;;;;;;;;;;;22.66;55.08;99737.34;5076439;28;2929;-68
2022/11/17 11:11:45;;;;;;;;;;;;;;;22.53;56.01;99729.88;5064774;28;3032;-68
2022/11/17 11:14:14;;;;;;;;;;;;;;;22.51;56.48;99727.66;5083262;28;2918;-68
2022/11/17 11:16:40;;;;;;;;;;;;;;;22.49;56.85;99718.25;5077322;28;3365;-66
2022/11/17 11:19:13;;;;;;;;;;;;;;;22.52;56.84;99714.72;5079657;28;3247;-66
2022/11/17 11:21:49;;;;;;;;;;;;;;;22.55;57.47;99710.44;5077737;28;2951;-66
2022/11/17 11:24:23;;;;;;;;;;;;;;;22.58;57.15;99700.41;5083147;28;3035;-66
2022/11/17 11:26:58;;;;;;;;;;;;;;;22.51;57.06;99710.38;5056623;28;5039;-65
2022/11/17 11:29:43;;;;;;;;;;;;;;;22.28;57.76;99699.81;5056594;28;3313;-64
2022/11/17 11:32:16;;;;;;;;;;;;;;;22.35;57.47;99695.63;5064657;28;3012;-65
2022/11/17 11:34:45;;;;;;;;;;;;;;;22.42;57.51;99693.59;5082758;28;3400;-66
2022/11/17 11:37:12;;;;;;;;;;;;;;;22.42;57.27;99691.44;5073631;28;2943;-65
2022/11/17 11:39:41;;;;;;;;;;;;;;;22.40;57.01;99699.31;5067874;28;2580;-64
2022/11/17 11:42:14;;;;;;;;;;;;;;;22.38;57.32;99688.50;5069360;28;2786;-64
2022/11/17 11:44:44;;;;;;;;;;;;;;;22.37;57.12;99695.66;5077639;28;3449;-64
2022/11/17 11:47:18;;;;;;;;;;;;;;;22.36;57.43;99694.22;5071657;28;1582;-62
2022/11/17 11:49:48;;;;;;;;;;;;;;;22.35;57.33;99699.22;5090772;28;1633;-63
2022/11/17 11:52:17;;;;;;;;;;;;;;;22.33;57.98;99695.59;5068495;28;2985;-64
2022/11/17 11:54:46;;;;;;;;;;;;;;;22.33;57.88;99698.47;5065000;28;3420;-64
2022/11/17 11:57:17;;;;;;;;;;;;;;;22.25;57.53;99689.66;5078160;28;3023;-62
2022/11/17 11:59:52;;;;;;;;;;;;;;;22.13;57.49;99702.38;5051922;28;3154;-65
2022/11/17 12:02:21;;;;;;;;;;;;;;;21.94;54.38;99694.75;5085414;28;2880;-60
2022/11/17 12:05:07;;;;;;;;;;;;;;;22.33;52.67;99692.69;5073883;28;2966;-59
2022/11/17 12:07:36;;;;;;;;;;;;;;;22.57;53.46;99684.53;5082754;28;2973;-59
2022/11/17 12:10:14;;;;;;;;;;;;;;;22.68;53.90;99690.50;5066809;28;3068;-58
2022/11/17 12:12:41;;;;;;;;;;;;;;;22.75;55.00;99677.63;5065453;28;3021;-56
2022/11/17 12:15:16;;;;;;;;;;;;;;;22.76;55.06;99671.16;5066875;28;3106;-60
2022/11/17 12:17:59;;;;;;;;;;;;;;;22.78;55.52;99685.63;5081685;28;3000;-58
2022/11/17 12:20:37;;;;;;;;;;;;;;;22.86;55.52;99685.03;5081811;28;2999;-57
2022/11/17 12:23:22;;;;;;;;;;;;;;;22.50;55.76;99674.28;5083345;28;3151;-60
2022/11/17 12:25:49;;;;;;;;;;;;;;;22.34;56.46;99679.75;5091466;28;2940;-58
2022/11/17 12:28:26;;;;;;;;;;;;;;;22.29;56.51;99678.22;5070742;28;3325;-57
2022/11/17 12:30:56;;;;;;;;;;;;;;;22.44;56.60;99682.09;5092707;28;2971;-59
2022/11/17 12:33:22;;;;;;;;;;;;;;;22.57;56.63;99678.75;5091381;28;2999;-58
2022/11/17 12:36:13;;;;;;;;;;;;;;;22.67;56.05;99675.31;5103875;28;2451;-56
2022/11/17 12:38:40;;;;;;;;;;;;;;;22.67;55.96;99674.59;5104488;28;3031;-55
2022/11/17 12:41:06;;;;;;;;;;;;;;;22.73;56.20;99663.16;5095866;28;3050;-58
2022/11/17 12:43:33;;;;;;;;;;;;;;;22.75;55.74;99668.97;5099074;28;2898;-58
2022/11/17 12:45:59;;;;;;;;;;;;;;;22.76;55.69;99667.53;5094406;28;2933;-59
2022/11/17 12:48:32;;;;;;;;;;;;;;;22.74;55.46;99673.28;5082511;28;3575;-54
2022/11/17 12:51:06;;;;;;;;;;;;;;;22.72;55.36;99670.34;5068767;28;3034;-55
2022/11/17 12:53:37;;;;;;;;;;;;;;;22.73;55.59;99666.06;5082497;28;3081;-57
2022/11/17 12:56:25;;;;;;;;;;;;;;;22.76;55.39;99676.91;5064359;28;3126;-58
2022/11/17 12:59:10;;;;;;;;;;;;;;;22.81;55.38;99677.72;5056934;28;2999;-55
2022/11/17 13:01:46;;;;;;;;;;;;;;;22.88;55.19;99669.91;5081807;28;3323;-60
2022/11/17 13:04:13;;;;;;;;;;;;;;;22.92;54.92;99682.25;5063653;28;2947;-60
2022/11/17 13:07:00;;;;;;;;;;;;;;;22.93;54.80;99677.94;5061390;28;2969;-57
2022/11/17 13:09:30;;;;;;;;;;;;;;;22.92;54.63;99667.81;5077098;28;3263;-59
2022/11/17 13:11:57;;;;;;;;;;;;;;;22.90;54.68;99676.44;5076775;28;2912;-60
2022/11/17 13:14:23;;;;;;;;;;;;;;;22.76;54.51;99673.31;5076442;28;3059;-59
2022/11/17 13:16:50;;;;;;;;;;;;;;;22.43;55.20;99664.06;5079099;28;2943;-61
2022/11/17 13:19:28;;;;;;;;;;;;;;;22.35;55.16;99675.44;5080808;28;3094;-57
2022/11/17 13:21:58;;;;;;;;;;;;;;;22.50;55.82;99662.75;5053533;28;2915;-60
2022/11/17 13:24:34;;;;;;;;;;;;;;;22.66;55.17;99673.16;5063540;28;3300;-60
2022/11/17 13:27:01;;;;;;;;;;;;;;;22.73;54.76;99666.78;5064771;28;2946;-58
2022/11/17 13:29:27;;;;;;;;;;;;;;;22.74;54.87;99658.84;5067894;28;3470;-58
2022/11/17 13:32:27;;;;;;;;;;;;;;;22.76;54.74;99653.84;5058282;28;3597;-62